sensor_id;sensor_type;location;lat;lon;timestamp;P1;durP1;ratioP1;P2;durP2;ratioP2
37341;SDS011;58643;49.052;8.518;2022-09-01T00:01:15;8.60;;;6.28;;
37341;SDS011;58643;49.052;8.518;2022-09-01T00:03:48;8.85;;;6.32;;
37341;SDS011;58643;49.052;8.518;2022-09-01T00:06:16;7.40;;;6.57;;
37341;SDS011;58643;49.052;8.518;2022-09-01T00:08:49;13.60;;;6.53;;
37341;SDS011;58643;49.052;8.518;2022-09-01T00:11:20;8.18;;;5.78;;
37341;SDS011;58643;49.052;8.518;2022-09-01T00:13:47;7.05;;;5.93;;
37341;SDS011;58643;49.052;8.518;2022-09-01T00:16:14;9.35;;;6.32;;
37341;SDS011;58643;49.052;8.518;2022-09-01T00:18:45;11.57;;;6.30;;
37341;SDS011;58643;49.052;8.518;2022-09-01T00:21:16;11.50;;;6.25;;
37341;SDS011;58643;49.052;8.518;2022-09-01T00:23:45;7.32;;;6.13;;
37341;SDS011;58643;49.052;8.518;2022-09-01T00:26:11;16.90;;;6.40;;
37341;SDS011;58643;49.052;8.518;2022-09-01T00:28:37;6.88;;;6.20;;
37341;SDS011;58643;49.052;8.518;2022-09-01T00:31:04;14.88;;;6.53;;
37341;SDS011;58643;49.052;8.518;2022-09-01T00:33:30;15.35;;;6.22;;
37341;SDS011;58643;49.052;8.518;2022-09-01T00:35:57;7.90;;;6.45;;
37341;SDS011;58643;49.052;8.518;2022-09-01T00:38:23;9.80;;;6.18;;
37341;SDS011;58643;49.052;8.518;2022-09-01T00:40:50;11.15;;;6.15;;
37341;SDS011;58643;49.052;8.518;2022-09-01T00:43:16;8.73;;;6.25;;
37341;SDS011;58643;49.052;8.518;2022-09-01T00:46:01;7.78;;;5.88;;
37341;SDS011;58643;49.052;8.518;2022-09-01T00:48:27;7.50;;;5.97;;
37341;SDS011;58643;49.052;8.518;2022-09-01T00:50:54;14.65;;;5.60;;
37341;SDS011;58643;49.052;8.518;2022-09-01T00:53:20;7.00;;;5.88;;
37341;SDS011;58643;49.052;8.518;2022-09-01T00:55:46;9.10;;;5.55;;
37341;SDS011;58643;49.052;8.518;2022-09-01T00:58:11;7.15;;;6.07;;
37341;SDS011;58643;49.052;8.518;2022-09-01T01:00:37;14.25;;;6.07;;
37341;SDS011;58643;49.052;8.518;2022-09-01T01:03:11;9.05;;;5.88;;
37341;SDS011;58643;49.052;8.518;2022-09-01T01:05:39;8.90;;;5.90;;
37341;SDS011;58643;49.052;8.518;2022-09-01T01:08:10;7.05;;;6.00;;
37341;SDS011;58643;49.052;8.518;2022-09-01T01:10:38;15.77;;;6.28;;
37341;SDS011;58643;49.052;8.518;2022-09-01T01:13:09;11.13;;;6.23;;
37341;SDS011;58643;49.052;8.518;2022-09-01T01:15:38;7.88;;;6.40;;
37341;SDS011;58643;49.052;8.518;2022-09-01T01:18:08;12.50;;;7.18;;
37341;SDS011;58643;49.052;8.518;2022-09-01T01:20:40;8.82;;;6.90;;
37341;SDS011;58643;49.052;8.518;2022-09-01T01:23:29;7.15;;;6.40;;
37341;SDS011;58643;49.052;8.518;2022-09-01T01:26:07;9.45;;;6.95;;
37341;SDS011;58643;49.052;8.518;2022-09-01T01:28:35;8.88;;;6.50;;
37341;SDS011;58643;49.052;8.518;2022-09-01T01:33:38;10.70;;;7.15;;
37341;SDS011;58643;49.052;8.518;2022-09-01T01:36:13;9.05;;;6.45;;
37341;SDS011;58643;49.052;8.518;2022-09-01T01:38:44;11.73;;;7.20;;
37341;SDS011;58643;49.052;8.518;2022-09-01T01:41:11;8.73;;;6.88;;
37341;SDS011;58643;49.052;8.518;2022-09-01T01:43:38;7.88;;;7.07;;
37341;SDS011;58643;49.052;8.518;2022-09-01T01:46:05;8.77;;;6.88;;
37341;SDS011;58643;49.052;8.518;2022-09-01T01:48:33;12.50;;;7.22;;
37341;SDS011;58643;49.052;8.518;2022-09-01T01:51:02;9.43;;;7.28;;
37341;SDS011;58643;49.052;8.518;2022-09-01T01:53:29;11.55;;;7.97;;
37341;SDS011;58643;49.052;8.518;2022-09-01T01:55:56;9.90;;;7.60;;
37341;SDS011;58643;49.052;8.518;2022-09-01T01:58:25;9.25;;;7.32;;
37341;SDS011;58643;49.052;8.518;2022-09-01T02:00:53;12.98;;;7.72;;
37341;SDS011;58643;49.052;8.518;2022-09-01T02:03:21;10.57;;;8.18;;
37341;SDS011;58643;49.052;8.518;2022-09-01T02:05:49;9.95;;;8.32;;
37341;SDS011;58643;49.052;8.518;2022-09-01T02:08:17;8.90;;;7.85;;
37341;SDS011;58643;49.052;8.518;2022-09-01T02:10:50;10.95;;;7.82;;
37341;SDS011;58643;49.052;8.518;2022-09-01T02:13:18;9.93;;;8.23;;
37341;SDS011;58643;49.052;8.518;2022-09-01T02:15:55;11.35;;;8.45;;
37341;SDS011;58643;49.052;8.518;2022-09-01T02:18:32;13.07;;;8.68;;
37341;SDS011;58643;49.052;8.518;2022-09-01T02:21:02;12.23;;;9.15;;
37341;SDS011;58643;49.052;8.518;2022-09-01T02:23:33;13.60;;;8.80;;
37341;SDS011;58643;49.052;8.518;2022-09-01T02:26:00;16.35;;;9.40;;
37341;SDS011;58643;49.052;8.518;2022-09-01T02:28:26;15.25;;;9.88;;
37341;SDS011;58643;49.052;8.518;2022-09-01T02:30:55;10.60;;;9.15;;
37341;SDS011;58643;49.052;8.518;2022-09-01T02:33:26;12.63;;;9.15;;
37341;SDS011;58643;49.052;8.518;2022-09-01T02:35:56;12.75;;;9.10;;
37341;SDS011;58643;49.052;8.518;2022-09-01T02:38:25;11.65;;;8.38;;
37341;SDS011;58643;49.052;8.518;2022-09-01T02:40:53;10.87;;;8.67;;
37341;SDS011;58643;49.052;8.518;2022-09-01T02:43:20;10.32;;;8.90;;
37341;SDS011;58643;49.052;8.518;2022-09-01T02:45:47;15.60;;;10.05;;
37341;SDS011;58643;49.052;8.518;2022-09-01T02:48:18;14.50;;;9.52;;
37341;SDS011;58643;49.052;8.518;2022-09-01T02:50:46;12.68;;;9.98;;
37341;SDS011;58643;49.052;8.518;2022-09-01T02:53:13;13.77;;;10.68;;
37341;SDS011;58643;49.052;8.518;2022-09-01T02:55:39;11.95;;;10.18;;
37341;SDS011;58643;49.052;8.518;2022-09-01T02:58:06;15.25;;;10.80;;
37341;SDS011;58643;49.052;8.518;2022-09-01T03:00:40;13.30;;;10.55;;
37341;SDS011;58643;49.052;8.518;2022-09-01T03:03:07;13.05;;;10.18;;
37341;SDS011;58643;49.052;8.518;2022-09-01T03:05:33;20.98;;;10.98;;
37341;SDS011;58643;49.052;8.518;2022-09-01T03:10:36;18.33;;;10.57;;
37341;SDS011;58643;49.052;8.518;2022-09-01T03:13:10;13.13;;;10.82;;
37341;SDS011;58643;49.052;8.518;2022-09-01T03:15:41;15.27;;;10.60;;
37341;SDS011;58643;49.052;8.518;2022-09-01T03:18:08;13.52;;;10.60;;
37341;SDS011;58643;49.052;8.518;2022-09-01T03:20:35;15.30;;;10.80;;
37341;SDS011;58643;49.052;8.518;2022-09-01T03:23:05;14.15;;;10.75;;
37341;SDS011;58643;49.052;8.518;2022-09-01T03:25:34;15.68;;;10.90;;
37341;SDS011;58643;49.052;8.518;2022-09-01T03:28:01;12.63;;;10.32;;
37341;SDS011;58643;49.052;8.518;2022-09-01T03:30:29;13.88;;;11.18;;
37341;SDS011;58643;49.052;8.518;2022-09-01T03:32:56;17.23;;;11.50;;
37341;SDS011;58643;49.052;8.518;2022-09-01T03:35:23;13.05;;;10.38;;
37341;SDS011;58643;49.052;8.518;2022-09-01T03:37:51;15.55;;;11.50;;
37341;SDS011;58643;49.052;8.518;2022-09-01T03:40:17;16.52;;;11.48;;
37341;SDS011;58643;49.052;8.518;2022-09-01T03:42:43;15.88;;;11.75;;
37341;SDS011;58643;49.052;8.518;2022-09-01T03:45:10;15.57;;;12.02;;
37341;SDS011;58643;49.052;8.518;2022-09-01T03:47:40;15.20;;;12.48;;
37341;SDS011;58643;49.052;8.518;2022-09-01T03:50:08;16.27;;;12.05;;
37341;SDS011;58643;49.052;8.518;2022-09-01T03:52:55;17.75;;;12.70;;
37341;SDS011;58643;49.052;8.518;2022-09-01T03:55:24;14.45;;;12.93;;
37341;SDS011;58643;49.052;8.518;2022-09-01T03:57:56;18.58;;;12.25;;
37341;SDS011;58643;49.052;8.518;2022-09-01T04:02:54;20.77;;;13.57;;
37341;SDS011;58643;49.052;8.518;2022-09-01T04:05:22;17.17;;;13.95;;
37341;SDS011;58643;49.052;8.518;2022-09-01T04:07:56;25.55;;;15.35;;
37341;SDS011;58643;49.052;8.518;2022-09-01T04:10:25;19.55;;;14.85;;
37341;SDS011;58643;49.052;8.518;2022-09-01T04:12:50;21.02;;;15.68;;
37341;SDS011;58643;49.052;8.518;2022-09-01T04:15:16;18.23;;;14.60;;
37341;SDS011;58643;49.052;8.518;2022-09-01T04:17:43;17.50;;;14.32;;
37341;SDS011;58643;49.052;8.518;2022-09-01T04:20:27;16.73;;;14.63;;
37341;SDS011;58643;49.052;8.518;2022-09-01T04:22:53;20.38;;;15.10;;
37341;SDS011;58643;49.052;8.518;2022-09-01T04:25:21;18.80;;;15.27;;
37341;SDS011;58643;49.052;8.518;2022-09-01T04:27:49;21.10;;;14.65;;
37341;SDS011;58643;49.052;8.518;2022-09-01T04:30:19;17.30;;;13.95;;
37341;SDS011;58643;49.052;8.518;2022-09-01T04:32:48;18.30;;;14.40;;
37341;SDS011;58643;49.052;8.518;2022-09-01T04:35:16;19.88;;;14.38;;
37341;SDS011;58643;49.052;8.518;2022-09-01T04:37:42;21.42;;;15.00;;
37341;SDS011;58643;49.052;8.518;2022-09-01T04:40:11;21.60;;;15.17;;
37341;SDS011;58643;49.052;8.518;2022-09-01T04:42:38;23.05;;;16.15;;
37341;SDS011;58643;49.052;8.518;2022-09-01T04:45:06;21.85;;;16.58;;
37341;SDS011;58643;49.052;8.518;2022-09-01T04:47:35;21.67;;;16.52;;
37341;SDS011;58643;49.052;8.518;2022-09-01T04:50:05;23.30;;;17.35;;
37341;SDS011;58643;49.052;8.518;2022-09-01T04:52:37;21.23;;;16.27;;
37341;SDS011;58643;49.052;8.518;2022-09-01T04:55:04;26.75;;;18.25;;
37341;SDS011;58643;49.052;8.518;2022-09-01T04:57:32;27.83;;;17.95;;
37341;SDS011;58643;49.052;8.518;2022-09-01T04:59:58;28.27;;;20.00;;
37341;SDS011;58643;49.052;8.518;2022-09-01T05:02:25;25.77;;;19.75;;
37341;SDS011;58643;49.052;8.518;2022-09-01T05:04:53;27.20;;;19.58;;
37341;SDS011;58643;49.052;8.518;2022-09-01T05:07:19;28.33;;;20.40;;
37341;SDS011;58643;49.052;8.518;2022-09-01T05:09:45;31.63;;;22.10;;
37341;SDS011;58643;49.052;8.518;2022-09-01T05:12:11;33.88;;;22.90;;
37341;SDS011;58643;49.052;8.518;2022-09-01T05:14:37;30.85;;;22.27;;
37341;SDS011;58643;49.052;8.518;2022-09-01T05:17:06;27.90;;;20.65;;
37341;SDS011;58643;49.052;8.518;2022-09-01T05:19:34;33.45;;;22.10;;
37341;SDS011;58643;49.052;8.518;2022-09-01T05:22:01;34.13;;;22.15;;
37341;SDS011;58643;49.052;8.518;2022-09-01T05:24:28;26.83;;;20.48;;
37341;SDS011;58643;49.052;8.518;2022-09-01T05:26:56;29.80;;;21.30;;
37341;SDS011;58643;49.052;8.518;2022-09-01T05:29:23;30.75;;;21.00;;
37341;SDS011;58643;49.052;8.518;2022-09-01T05:31:51;26.67;;;20.25;;
37341;SDS011;58643;49.052;8.518;2022-09-01T05:34:19;23.60;;;19.27;;
37341;SDS011;58643;49.052;8.518;2022-09-01T05:36:51;29.30;;;20.02;;
37341;SDS011;58643;49.052;8.518;2022-09-01T05:39:18;27.67;;;19.95;;
37341;SDS011;58643;49.052;8.518;2022-09-01T05:41:45;27.70;;;20.25;;
37341;SDS011;58643;49.052;8.518;2022-09-01T05:44:12;26.15;;;19.65;;
37341;SDS011;58643;49.052;8.518;2022-09-01T05:46:39;27.67;;;18.80;;
37341;SDS011;58643;49.052;8.518;2022-09-01T05:49:08;25.17;;;18.02;;
37341;SDS011;58643;49.052;8.518;2022-09-01T05:51:38;22.58;;;17.77;;
37341;SDS011;58643;49.052;8.518;2022-09-01T05:54:06;20.48;;;16.65;;
37341;SDS011;58643;49.052;8.518;2022-09-01T05:56:33;20.90;;;16.05;;
37341;SDS011;58643;49.052;8.518;2022-09-01T05:59:02;20.35;;;16.35;;
37341;SDS011;58643;49.052;8.518;2022-09-01T06:01:29;21.45;;;17.05;;
37341;SDS011;58643;49.052;8.518;2022-09-01T06:03:56;20.17;;;16.67;;
37341;SDS011;58643;49.052;8.518;2022-09-01T06:06:24;20.60;;;16.77;;
37341;SDS011;58643;49.052;8.518;2022-09-01T06:08:51;22.27;;;15.90;;
37341;SDS011;58643;49.052;8.518;2022-09-01T06:11:23;25.35;;;18.00;;
37341;SDS011;58643;49.052;8.518;2022-09-01T06:13:51;20.65;;;16.48;;
37341;SDS011;58643;49.052;8.518;2022-09-01T06:16:20;24.67;;;17.00;;
37341;SDS011;58643;49.052;8.518;2022-09-01T06:18:48;21.98;;;16.73;;
37341;SDS011;58643;49.052;8.518;2022-09-01T06:21:17;22.30;;;17.38;;
37341;SDS011;58643;49.052;8.518;2022-09-01T06:23:43;21.77;;;16.45;;
37341;SDS011;58643;49.052;8.518;2022-09-01T06:26:20;23.05;;;16.45;;
37341;SDS011;58643;49.052;8.518;2022-09-01T06:28:57;24.80;;;17.05;;
37341;SDS011;58643;49.052;8.518;2022-09-01T06:31:26;19.70;;;16.25;;
37341;SDS011;58643;49.052;8.518;2022-09-01T06:33:58;24.35;;;15.98;;
37341;SDS011;58643;49.052;8.518;2022-09-01T06:36:24;24.45;;;15.82;;
37341;SDS011;58643;49.052;8.518;2022-09-01T06:38:50;21.23;;;15.95;;
37341;SDS011;58643;49.052;8.518;2022-09-01T06:41:17;18.73;;;15.60;;
37341;SDS011;58643;49.052;8.518;2022-09-01T06:43:46;22.23;;;15.77;;
37341;SDS011;58643;49.052;8.518;2022-09-01T06:48:39;19.23;;;15.82;;
37341;SDS011;58643;49.052;8.518;2022-09-01T06:51:10;22.42;;;14.95;;
37341;SDS011;58643;49.052;8.518;2022-09-01T06:53:41;17.77;;;14.25;;
37341;SDS011;58643;49.052;8.518;2022-09-01T06:56:08;21.73;;;15.30;;
37341;SDS011;58643;49.052;8.518;2022-09-01T06:58:37;18.52;;;14.55;;
37341;SDS011;58643;49.052;8.518;2022-09-01T07:01:07;19.52;;;13.75;;
37341;SDS011;58643;49.052;8.518;2022-09-01T07:03:43;17.95;;;14.95;;
37341;SDS011;58643;49.052;8.518;2022-09-01T07:06:11;17.50;;;13.55;;
37341;SDS011;58643;49.052;8.518;2022-09-01T07:08:38;17.05;;;14.38;;
37341;SDS011;58643;49.052;8.518;2022-09-01T07:11:04;19.38;;;14.60;;
37341;SDS011;58643;49.052;8.518;2022-09-01T07:13:32;22.52;;;15.43;;
37341;SDS011;58643;49.052;8.518;2022-09-01T07:16:00;21.45;;;13.43;;
37341;SDS011;58643;49.052;8.518;2022-09-01T07:18:28;19.33;;;13.10;;
37341;SDS011;58643;49.052;8.518;2022-09-01T07:20:55;21.05;;;13.95;;
37341;SDS011;58643;49.052;8.518;2022-09-01T07:23:21;19.55;;;13.25;;
37341;SDS011;58643;49.052;8.518;2022-09-01T07:25:49;17.00;;;12.60;;
37341;SDS011;58643;49.052;8.518;2022-09-01T07:28:19;16.98;;;13.93;;
37341;SDS011;58643;49.052;8.518;2022-09-01T07:30:48;16.25;;;12.73;;
37341;SDS011;58643;49.052;8.518;2022-09-01T07:33:15;19.13;;;13.80;;
37341;SDS011;58643;49.052;8.518;2022-09-01T07:35:45;14.35;;;12.07;;
37341;SDS011;58643;49.052;8.518;2022-09-01T07:38:11;15.23;;;12.32;;
37341;SDS011;58643;49.052;8.518;2022-09-01T07:40:37;16.83;;;13.57;;
37341;SDS011;58643;49.052;8.518;2022-09-01T07:43:08;17.10;;;11.88;;
37341;SDS011;58643;49.052;8.518;2022-09-01T07:45:46;16.45;;;12.68;;
37341;SDS011;58643;49.052;8.518;2022-09-01T07:48:14;15.48;;;11.85;;
37341;SDS011;58643;49.052;8.518;2022-09-01T07:50:44;14.05;;;11.18;;
37341;SDS011;58643;49.052;8.518;2022-09-01T07:53:15;13.57;;;10.07;;
37341;SDS011;58643;49.052;8.518;2022-09-01T07:55:43;16.98;;;11.52;;
37341;SDS011;58643;49.052;8.518;2022-09-01T07:58:11;14.60;;;10.55;;
37341;SDS011;58643;49.052;8.518;2022-09-01T08:00:40;13.43;;;9.65;;
37341;SDS011;58643;49.052;8.518;2022-09-01T08:03:10;13.93;;;10.43;;
37341;SDS011;58643;49.052;8.518;2022-09-01T08:05:36;16.60;;;10.30;;
37341;SDS011;58643;49.052;8.518;2022-09-01T08:08:02;12.27;;;9.95;;
37341;SDS011;58643;49.052;8.518;2022-09-01T08:10:29;12.80;;;10.00;;
37341;SDS011;58643;49.052;8.518;2022-09-01T08:12:54;12.80;;;9.65;;
37341;SDS011;58643;49.052;8.518;2022-09-01T08:15:20;10.55;;;8.88;;
37341;SDS011;58643;49.052;8.518;2022-09-01T08:17:46;10.25;;;8.68;;
37341;SDS011;58643;49.052;8.518;2022-09-01T08:20:12;10.55;;;8.25;;
37341;SDS011;58643;49.052;8.518;2022-09-01T08:22:38;12.07;;;8.77;;
37341;SDS011;58643;49.052;8.518;2022-09-01T08:25:09;10.25;;;8.68;;
37341;SDS011;58643;49.052;8.518;2022-09-01T08:27:36;15.40;;;8.68;;
37341;SDS011;58643;49.052;8.518;2022-09-01T08:30:05;9.15;;;8.00;;
37341;SDS011;58643;49.052;8.518;2022-09-01T08:32:33;10.68;;;7.97;;
37341;SDS011;58643;49.052;8.518;2022-09-01T08:35:00;11.32;;;7.72;;
37341;SDS011;58643;49.052;8.518;2022-09-01T08:37:25;10.23;;;7.80;;
37341;SDS011;58643;49.052;8.518;2022-09-01T08:39:51;13.95;;;7.75;;
37341;SDS011;58643;49.052;8.518;2022-09-01T08:47:24;10.00;;;7.82;;
37341;SDS011;58643;49.052;8.518;2022-09-01T08:49:50;8.13;;;7.20;;
37341;SDS011;58643;49.052;8.518;2022-09-01T08:54:48;8.77;;;7.15;;
37341;SDS011;58643;49.052;8.518;2022-09-01T08:57:22;8.13;;;6.47;;
37341;SDS011;58643;49.052;8.518;2022-09-01T08:59:59;8.77;;;6.57;;
37341;SDS011;58643;49.052;8.518;2022-09-01T09:02:30;8.50;;;6.20;;
37341;SDS011;58643;49.052;8.518;2022-09-01T09:05:32;9.00;;;7.13;;
37341;SDS011;58643;49.052;8.518;2022-09-01T09:14:20;7.60;;;6.70;;
37341;SDS011;58643;49.052;8.518;2022-09-01T09:17:00;7.93;;;6.85;;
37341;SDS011;58643;49.052;8.518;2022-09-01T09:19:29;8.80;;;6.63;;
37341;SDS011;58643;49.052;8.518;2022-09-01T09:21:59;9.25;;;6.20;;
37341;SDS011;58643;49.052;8.518;2022-09-01T09:24:29;7.97;;;6.72;;
37341;SDS011;58643;49.052;8.518;2022-09-01T09:29:56;8.50;;;6.75;;
37341;SDS011;58643;49.052;8.518;2022-09-01T09:32:40;9.02;;;7.43;;
37341;SDS011;58643;49.052;8.518;2022-09-01T09:43:26;8.23;;;4.85;;
37341;SDS011;58643;49.052;8.518;2022-09-01T09:48:45;8.05;;;4.63;;
37341;SDS011;58643;49.052;8.518;2022-09-01T09:51:15;4.90;;;3.88;;
37341;SDS011;58643;49.052;8.518;2022-09-01T09:53:45;6.40;;;4.80;;
37341;SDS011;58643;49.052;8.518;2022-09-01T09:56:20;5.45;;;4.50;;
37341;SDS011;58643;49.052;8.518;2022-09-01T09:58:48;6.78;;;4.28;;
37341;SDS011;58643;49.052;8.518;2022-09-01T10:03:48;5.35;;;4.13;;
37341;SDS011;58643;49.052;8.518;2022-09-01T10:11:55;6.00;;;3.97;;
37341;SDS011;58643;49.052;8.518;2022-09-01T10:14:24;4.53;;;4.00;;
37341;SDS011;58643;49.052;8.518;2022-09-01T10:16:57;4.70;;;4.13;;
37341;SDS011;58643;49.052;8.518;2022-09-01T10:19:27;4.22;;;3.65;;
37341;SDS011;58643;49.052;8.518;2022-09-01T10:21:56;4.30;;;3.90;;
37341;SDS011;58643;49.052;8.518;2022-09-01T10:26:56;6.43;;;4.15;;
37341;SDS011;58643;49.052;8.518;2022-09-01T10:29:45;5.28;;;4.53;;
37341;SDS011;58643;49.052;8.518;2022-09-01T10:32:19;4.25;;;3.67;;
37341;SDS011;58643;49.052;8.518;2022-09-01T10:34:48;4.13;;;3.33;;
37341;SDS011;58643;49.052;8.518;2022-09-01T10:37:15;5.07;;;3.80;;
37341;SDS011;58643;49.052;8.518;2022-09-01T10:42:36;7.20;;;4.18;;
37341;SDS011;58643;49.052;8.518;2022-09-01T10:45:03;4.60;;;3.92;;
37341;SDS011;58643;49.052;8.518;2022-09-01T10:47:32;4.13;;;3.50;;
37341;SDS011;58643;49.052;8.518;2022-09-01T10:50:21;4.93;;;3.40;;
37341;SDS011;58643;49.052;8.518;2022-09-01T10:53:00;5.13;;;3.75;;
37341;SDS011;58643;49.052;8.518;2022-09-01T11:01:06;8.57;;;3.50;;
37341;SDS011;58643;49.052;8.518;2022-09-01T11:03:34;5.25;;;3.55;;
37341;SDS011;58643;49.052;8.518;2022-09-01T11:06:03;4.13;;;3.53;;
37341;SDS011;58643;49.052;8.518;2022-09-01T11:13:41;5.03;;;3.60;;
37341;SDS011;58643;49.052;8.518;2022-09-01T11:16:30;4.82;;;3.70;;
37341;SDS011;58643;49.052;8.518;2022-09-01T11:24:57;6.68;;;3.80;;
37341;SDS011;58643;49.052;8.518;2022-09-01T11:30:23;5.72;;;3.72;;
37341;SDS011;58643;49.052;8.518;2022-09-01T11:41:51;5.63;;;4.00;;
37341;SDS011;58643;49.052;8.518;2022-09-01T11:44:35;4.95;;;4.10;;
37341;SDS011;58643;49.052;8.518;2022-09-01T11:47:29;5.47;;;3.97;;
37341;SDS011;58643;49.052;8.518;2022-09-01T11:50:17;5.32;;;3.90;;
37341;SDS011;58643;49.052;8.518;2022-09-01T11:52:42;5.28;;;3.95;;
37341;SDS011;58643;49.052;8.518;2022-09-01T11:56:12;4.60;;;3.70;;
37341;SDS011;58643;49.052;8.518;2022-09-01T12:00:53;4.35;;;3.17;;
37341;SDS011;58643;49.052;8.518;2022-09-01T12:05:51;4.93;;;2.92;;
37341;SDS011;58643;49.052;8.518;2022-09-01T12:08:25;4.75;;;2.88;;
37341;SDS011;58643;49.052;8.518;2022-09-01T12:11:04;5.47;;;3.08;;
37341;SDS011;58643;49.052;8.518;2022-09-01T12:13:32;4.95;;;2.80;;
37341;SDS011;58643;49.052;8.518;2022-09-01T12:16:00;4.97;;;2.78;;
37341;SDS011;58643;49.052;8.518;2022-09-01T12:18:33;4.68;;;3.20;;
37341;SDS011;58643;49.052;8.518;2022-09-01T12:21:02;4.05;;;2.92;;
37341;SDS011;58643;49.052;8.518;2022-09-01T12:23:33;7.53;;;3.17;;
37341;SDS011;58643;49.052;8.518;2022-09-01T12:26:02;4.25;;;3.03;;
37341;SDS011;58643;49.052;8.518;2022-09-01T12:28:39;4.65;;;2.70;;
37341;SDS011;58643;49.052;8.518;2022-09-01T12:31:13;4.10;;;2.67;;
37341;SDS011;58643;49.052;8.518;2022-09-01T12:33:41;8.82;;;3.88;;
37341;SDS011;58643;49.052;8.518;2022-09-01T12:38:40;6.30;;;2.90;;
37341;SDS011;58643;49.052;8.518;2022-09-01T12:41:26;10.15;;;3.28;;
37341;SDS011;58643;49.052;8.518;2022-09-01T12:47:02;6.47;;;2.90;;
37341;SDS011;58643;49.052;8.518;2022-09-01T12:54:46;4.35;;;2.88;;
37341;SDS011;58643;49.052;8.518;2022-09-01T12:57:28;3.28;;;2.42;;
37341;SDS011;58643;49.052;8.518;2022-09-01T13:02:37;3.67;;;2.08;;
37341;SDS011;58643;49.052;8.518;2022-09-01T13:07:52;2.58;;;1.80;;
37341;SDS011;58643;49.052;8.518;2022-09-01T13:10:19;2.28;;;2.00;;
37341;SDS011;58643;49.052;8.518;2022-09-01T13:12:45;5.15;;;1.90;;
37341;SDS011;58643;49.052;8.518;2022-09-01T13:15:12;3.72;;;2.20;;
37341;SDS011;58643;49.052;8.518;2022-09-01T13:17:37;6.05;;;2.78;;
37341;SDS011;58643;49.052;8.518;2022-09-01T13:20:06;3.80;;;2.17;;
37341;SDS011;58643;49.052;8.518;2022-09-01T13:22:33;3.75;;;2.10;;
37341;SDS011;58643;49.052;8.518;2022-09-01T13:24:59;4.30;;;1.92;;
37341;SDS011;58643;49.052;8.518;2022-09-01T13:27:25;2.63;;;2.00;;
37341;SDS011;58643;49.052;8.518;2022-09-01T13:29:51;3.10;;;1.98;;
37341;SDS011;58643;49.052;8.518;2022-09-01T13:32:18;3.50;;;2.08;;
37341;SDS011;58643;49.052;8.518;2022-09-01T13:34:45;3.40;;;2.50;;
37341;SDS011;58643;49.052;8.518;2022-09-01T13:37:12;3.70;;;2.28;;
37341;SDS011;58643;49.052;8.518;2022-09-01T13:39:38;5.78;;;2.60;;
37341;SDS011;58643;49.052;8.518;2022-09-01T13:42:04;3.30;;;2.10;;
37341;SDS011;58643;49.052;8.518;2022-09-01T13:44:29;4.13;;;1.88;;
37341;SDS011;58643;49.052;8.518;2022-09-01T13:46:55;5.57;;;2.17;;
37341;SDS011;58643;49.052;8.518;2022-09-01T13:49:21;4.35;;;1.95;;
37341;SDS011;58643;49.052;8.518;2022-09-01T13:51:50;4.90;;;2.00;;
37341;SDS011;58643;49.052;8.518;2022-09-01T13:54:17;5.47;;;2.10;;
37341;SDS011;58643;49.052;8.518;2022-09-01T13:56:43;2.70;;;1.92;;
37341;SDS011;58643;49.052;8.518;2022-09-01T13:59:09;3.67;;;2.25;;
37341;SDS011;58643;49.052;8.518;2022-09-01T14:01:34;2.85;;;1.90;;
37341;SDS011;58643;49.052;8.518;2022-09-01T14:04:00;3.25;;;1.75;;
37341;SDS011;58643;49.052;8.518;2022-09-01T14:06:28;4.18;;;2.33;;
37341;SDS011;58643;49.052;8.518;2022-09-01T14:08:53;2.30;;;1.70;;
37341;SDS011;58643;49.052;8.518;2022-09-01T14:11:19;4.38;;;1.98;;
37341;SDS011;58643;49.052;8.518;2022-09-01T14:13:45;3.33;;;1.70;;
37341;SDS011;58643;49.052;8.518;2022-09-01T14:16:11;3.38;;;2.10;;
37341;SDS011;58643;49.052;8.518;2022-09-01T14:18:38;5.35;;;2.13;;
37341;SDS011;58643;49.052;8.518;2022-09-01T14:21:04;3.88;;;2.33;;
37341;SDS011;58643;49.052;8.518;2022-09-01T14:23:34;4.88;;;2.20;;
37341;SDS011;58643;49.052;8.518;2022-09-01T14:26:00;2.67;;;2.10;;
37341;SDS011;58643;49.052;8.518;2022-09-01T14:28:25;2.17;;;1.92;;
37341;SDS011;58643;49.052;8.518;2022-09-01T14:30:51;2.70;;;2.20;;
37341;SDS011;58643;49.052;8.518;2022-09-01T14:33:17;2.60;;;2.05;;
37341;SDS011;58643;49.052;8.518;2022-09-01T14:35:48;4.68;;;2.28;;
37341;SDS011;58643;49.052;8.518;2022-09-01T14:38:14;3.42;;;1.77;;
37341;SDS011;58643;49.052;8.518;2022-09-01T14:40:41;3.92;;;2.10;;
37341;SDS011;58643;49.052;8.518;2022-09-01T14:43:08;4.18;;;2.30;;
37341;SDS011;58643;49.052;8.518;2022-09-01T14:45:36;2.78;;;2.28;;
37341;SDS011;58643;49.052;8.518;2022-09-01T14:48:02;3.00;;;2.20;;
37341;SDS011;58643;49.052;8.518;2022-09-01T14:50:28;3.72;;;2.00;;
37341;SDS011;58643;49.052;8.518;2022-09-01T14:52:56;2.75;;;2.40;;
37341;SDS011;58643;49.052;8.518;2022-09-01T14:55:23;3.38;;;2.20;;
37341;SDS011;58643;49.052;8.518;2022-09-01T14:57:52;4.85;;;2.30;;
37341;SDS011;58643;49.052;8.518;2022-09-01T15:00:19;3.78;;;2.17;;
37341;SDS011;58643;49.052;8.518;2022-09-01T15:02:45;4.85;;;2.10;;
37341;SDS011;58643;49.052;8.518;2022-09-01T15:05:12;2.72;;;2.15;;
37341;SDS011;58643;49.052;8.518;2022-09-01T15:07:38;4.28;;;2.10;;
37341;SDS011;58643;49.052;8.518;2022-09-01T15:10:05;4.20;;;2.22;;
37341;SDS011;58643;49.052;8.518;2022-09-01T15:12:33;3.55;;;2.22;;
37341;SDS011;58643;49.052;8.518;2022-09-01T15:14:59;3.55;;;2.65;;
37341;SDS011;58643;49.052;8.518;2022-09-01T15:17:26;7.28;;;2.60;;
37341;SDS011;58643;49.052;8.518;2022-09-01T15:19:52;3.08;;;2.47;;
37341;SDS011;58643;49.052;8.518;2022-09-01T15:22:18;2.28;;;1.90;;
37341;SDS011;58643;49.052;8.518;2022-09-01T15:24:44;4.32;;;2.40;;
37341;SDS011;58643;49.052;8.518;2022-09-01T15:27:09;4.05;;;2.35;;
37341;SDS011;58643;49.052;8.518;2022-09-01T15:29:35;2.25;;;1.98;;
37341;SDS011;58643;49.052;8.518;2022-09-01T15:32:10;2.00;;;1.80;;
37341;SDS011;58643;49.052;8.518;2022-09-01T15:34:36;2.22;;;1.77;;
37341;SDS011;58643;49.052;8.518;2022-09-01T15:37:02;2.53;;;2.13;;
37341;SDS011;58643;49.052;8.518;2022-09-01T15:39:29;5.10;;;2.00;;
37341;SDS011;58643;49.052;8.518;2022-09-01T15:41:55;3.40;;;1.90;;
37341;SDS011;58643;49.052;8.518;2022-09-01T15:44:21;2.75;;;1.88;;
37341;SDS011;58643;49.052;8.518;2022-09-01T15:46:47;2.38;;;1.83;;
37341;SDS011;58643;49.052;8.518;2022-09-01T15:49:12;5.85;;;2.10;;
37341;SDS011;58643;49.052;8.518;2022-09-01T15:51:39;2.72;;;2.28;;
37341;SDS011;58643;49.052;8.518;2022-09-01T15:54:09;3.63;;;2.67;;
37341;SDS011;58643;49.052;8.518;2022-09-01T15:56:39;3.42;;;2.35;;
37341;SDS011;58643;49.052;8.518;2022-09-01T15:59:07;7.80;;;3.80;;
37341;SDS011;58643;49.052;8.518;2022-09-01T16:01:37;7.00;;;2.47;;
37341;SDS011;58643;49.052;8.518;2022-09-01T16:04:09;5.95;;;3.20;;
37341;SDS011;58643;49.052;8.518;2022-09-01T16:06:37;4.73;;;3.40;;
37341;SDS011;58643;49.052;8.518;2022-09-01T16:09:03;4.45;;;3.10;;
37341;SDS011;58643;49.052;8.518;2022-09-01T16:11:30;10.77;;;5.18;;
37341;SDS011;58643;49.052;8.518;2022-09-01T16:13:56;13.10;;;4.55;;
37341;SDS011;58643;49.052;8.518;2022-09-01T16:21:53;4.45;;;2.67;;
37341;SDS011;58643;49.052;8.518;2022-09-01T16:24:27;4.40;;;2.45;;
37341;SDS011;58643;49.052;8.518;2022-09-01T16:26:53;7.40;;;2.65;;
37341;SDS011;58643;49.052;8.518;2022-09-01T16:29:34;4.35;;;2.85;;
37341;SDS011;58643;49.052;8.518;2022-09-01T16:32:06;8.43;;;2.92;;
37341;SDS011;58643;49.052;8.518;2022-09-01T16:34:31;3.08;;;2.63;;